Time;durP1;ratioP1;P1;durP2;ratioP2;P2;SDS_P1;SDS_P2;PMS_P1;PMS_P2;Temp;Humidity;BMP_temperature;BMP_pressure;BME280_temperature;BME280_humidity;BME280_pressure;Samples;Min_cycle;Max_cycle;Signal;HPM_P1;HPM_P2
2021/08/23 00:00:46;;;;;;;3.40;3.10;;;;;23.60;100752.00;;;;2071031;28;20233;-69
2021/08/23 00:01:47;;;;;;;4.40;4.00;;;;;23.60;100746.00;;;;2071146;28;20213;-70
2021/08/23 00:02:47;;;;;;;5.30;4.33;;;;;23.60;100748.00;;;;2071020;28;20215;-70
2021/08/23 00:03:47;;;;;;;3.80;3.40;;;;;23.60;100753.00;;;;2071086;28;20221;-69
2021/08/23 00:04:48;;;;;;;7.83;4.23;;;;;23.60;100746.00;;;;2071110;28;20218;-70
2021/08/23 00:05:48;;;;;;;4.40;3.70;;;;;23.60;100754.00;;;;2071157;28;20300;-69
2021/08/23 00:06:48;;;;;;;4.50;4.10;;;;;23.60;100755.00;;;;2071121;28;20211;-70
2021/08/23 00:07:49;;;;;;;5.77;4.20;;;;;23.60;100744.00;;;;2071100;28;20681;-70
2021/08/23 00:08:49;;;;;;;3.60;3.30;;;;;23.60;100749.00;;;;2066778;28;20696;-70
2021/08/23 00:09:50;;;;;;;3.63;3.33;;;;;23.60;100747.00;;;;2062088;28;20792;-70
2021/08/23 00:10:52;;;;;;;4.88;4.00;;;;;23.60;100752.00;;;;2062611;28;20861;-70
2021/08/23 00:11:52;;;;;;;4.10;3.80;;;;;23.60;100744.00;;;;2070858;28;20210;-69
2021/08/23 00:12:52;;;;;;;4.83;3.40;;;;;23.60;100742.00;;;;2071116;28;20218;-69
2021/08/23 00:13:53;;;;;;;4.23;3.83;;;;;23.60;100751.00;;;;2070128;28;20719;-69
2021/08/23 00:14:53;;;;;;;3.80;3.50;;;;;23.60;100753.00;;;;2070181;28;20210;-69
2021/08/23 00:15:55;;;;;;;3.90;3.57;;;;;23.60;100749.00;;;;2071068;28;20553;-69
2021/08/23 00:16:55;;;;;;;4.05;3.65;;;;;23.60;100749.00;;;;2067565;28;20229;-69
2021/08/23 00:17:56;;;;;;;5.30;3.80;;;;;23.60;100747.00;;;;2071044;28;20653;-70
2021/08/23 00:18:56;;;;;;;5.00;3.53;;;;;23.60;100754.00;;;;2070314;28;20226;-69
2021/08/23 00:19:57;;;;;;;4.10;3.70;;;;;23.60;100751.00;;;;2070888;28;20246;-69
2021/08/23 00:21:10;;;;;;;4.80;4.30;;;;;23.60;100752.00;;;;2071017;28;20325;-70
2021/08/23 00:22:21;;;;;;;3.40;3.10;;;;;23.60;100751.00;;;;2067480;28;20272;-70
2021/08/23 00:23:23;;;;;;;3.95;3.65;;;;;23.60;100748.00;;;;2071176;28;20328;-69
2021/08/23 00:24:23;;;;;;;3.75;3.40;;;;;23.50;100749.00;;;;2070423;28;20340;-69
2021/08/23 00:25:24;;;;;;;4.20;3.80;;;;;23.60;100744.00;;;;2071402;28;20222;-69
2021/08/23 00:26:24;;;;;;;3.67;3.37;;;;;23.60;100750.00;;;;2071762;28;20252;-69
2021/08/23 00:27:25;;;;;;;4.97;3.60;;;;;23.60;100746.00;;;;2071913;28;20222;-69
2021/08/23 00:28:25;;;;;;;4.30;3.87;;;;;23.50;100754.00;;;;2071813;28;20222;-69
2021/08/23 00:29:26;;;;;;;3.90;3.50;;;;;23.60;100745.00;;;;2070460;28;21259;-71
2021/08/23 00:30:26;;;;;;;4.30;3.40;;;;;23.60;100747.00;;;;2071027;28;20677;-70
2021/08/23 00:31:26;;;;;;;4.40;3.87;;;;;23.60;100748.00;;;;2071763;28;20226;-69
2021/08/23 00:32:27;;;;;;;4.90;3.07;;;;;23.60;100744.00;;;;2072463;28;20218;-70
2021/08/23 00:33:27;;;;;;;4.03;3.63;;;;;23.60;100747.00;;;;2071735;28;20229;-70
2021/08/23 00:34:27;;;;;;;4.27;3.47;;;;;23.60;100751.00;;;;2071777;28;20763;-69
2021/08/23 00:35:28;;;;;;;4.33;3.60;;;;;23.60;100746.00;;;;2071537;28;20250;-70
2021/08/23 00:36:28;;;;;;;3.47;3.17;;;;;23.60;100754.00;;;;2071539;28;20222;-70
2021/08/23 00:37:28;;;;;;;3.80;3.50;;;;;23.50;100749.00;;;;2072171;28;20708;-70
2021/08/23 00:38:29;;;;;;;4.37;3.50;;;;;23.60;100748.00;;;;2072141;28;20712;-70
2021/08/23 00:39:29;;;;;;;3.33;3.00;;;;;23.60;100750.00;;;;2071759;28;20842;-69
2021/08/23 00:40:29;;;;;;;3.40;3.10;;;;;23.60;100751.00;;;;2071544;28;20273;-69
2021/08/23 00:41:32;;;;;;;3.73;3.37;;;;;23.60;100757.00;;;;2071731;28;20218;-69
2021/08/23 00:42:32;;;;;;;3.10;2.80;;;;;23.50;100756.00;;;;2072340;28;20221;-69
2021/08/23 00:43:32;;;;;;;4.73;4.07;;;;;23.60;100755.00;;;;2072240;28;20596;-69
2021/08/23 00:44:34;;;;;;;5.33;3.13;;;;;23.60;100749.00;;;;2072462;28;20218;-70
2021/08/23 00:45:34;;;;;;;3.85;3.55;;;;;23.60;100750.00;;;;2072214;28;21003;-70
2021/08/23 00:46:35;;;;;;;4.47;3.80;;;;;23.60;100755.00;;;;2071634;28;20260;-69
2021/08/23 00:47:35;;;;;;;3.40;3.10;;;;;23.60;100751.00;;;;2072217;28;20216;-69
2021/08/23 00:48:36;;;;;;;3.87;3.50;;;;;23.60;100755.00;;;;2072137;28;20468;-70
2021/08/23 00:49:36;;;;;;;4.40;3.50;;;;;23.60;100752.00;;;;2071002;28;20260;-70
2021/08/23 00:50:37;;;;;;;3.73;3.43;;;;;23.50;100753.00;;;;2063478;28;20215;-70
2021/08/23 00:51:37;;;;;;;3.37;3.07;;;;;23.50;100752.00;;;;2071673;28;20289;-70
2021/08/23 00:52:37;;;;;;;4.37;3.47;;;;;23.60;100754.00;;;;2071222;28;20301;-69
2021/08/23 00:53:38;;;;;;;3.90;3.50;;;;;23.50;100761.00;;;;2067101;28;20826;-70
2021/08/23 00:54:38;;;;;;;3.90;3.50;;;;;23.50;100756.00;;;;2060728;28;20294;-71
2021/08/23 00:55:39;;;;;;;3.70;3.10;;;;;23.50;100762.00;;;;2063183;28;20234;-69
2021/08/23 00:56:39;;;;;;;3.67;3.37;;;;;23.50;100762.00;;;;2069256;28;20214;-70
2021/08/23 00:57:40;;;;;;;4.30;3.60;;;;;23.60;100757.00;;;;2067231;28;20215;-70
2021/08/23 00:58:40;;;;;;;3.50;3.20;;;;;23.30;100756.00;;;;2071006;28;20246;-70
2021/08/23 00:59:41;;;;;;;3.50;3.20;;;;;23.60;100766.00;;;;2071919;28;20208;-70
2021/08/23 01:00:43;;;;;;;4.63;3.50;;;;;23.50;100757.00;;;;2072191;28;20206;-70
2021/08/23 01:02:10;;;;;;;3.20;2.95;;;;;23.60;100755.00;;;;2062027;28;20259;-70
2021/08/23 01:03:13;;;;;;;3.92;3.30;;;;;23.50;100754.00;;;;2057039;28;20210;-69
2021/08/23 01:04:22;;;;;;;4.45;3.40;;;;;23.50;100756.00;;;;2071401;28;20225;-69
2021/08/23 01:05:27;;;;;;;3.45;3.15;;;;;23.50;100759.00;;;;2071551;28;20241;-70
2021/08/23 01:06:28;;;;;;;3.58;3.28;;;;;23.50;100744.00;;;;2067980;28;20309;-70
2021/08/23 01:07:32;;;;;;;3.45;3.15;;;;;23.50;100758.00;;;;2070886;28;20224;-70
2021/08/23 01:08:36;;;;;;;3.92;3.53;;;;;23.50;100754.00;;;;2061914;28;20225;-69
2021/08/23 01:09:38;;;;;;;3.40;3.10;;;;;23.50;100763.00;;;;2055412;28;20294;-71
2021/08/23 01:10:47;;;;;;;3.00;2.80;;;;;23.50;100760.00;;;;2070693;28;20296;-69
2021/08/23 01:11:52;;;;;;;3.58;3.28;;;;;23.50;100758.00;;;;2067265;28;20203;-70
2021/08/23 01:12:53;;;;;;;3.75;3.00;;;;;23.50;100762.00;;;;2067075;28;20215;-70
2021/08/23 01:13:53;;;;;;;3.53;3.22;;;;;23.50;100762.00;;;;2070360;28;20742;-70
2021/08/23 01:14:53;;;;;;;3.37;3.07;;;;;23.50;100757.00;;;;2071556;28;20269;-70
2021/08/23 01:15:54;;;;;;;3.50;3.20;;;;;23.50;100766.00;;;;2063343;28;20265;-70
2021/08/23 01:16:54;;;;;;;3.50;3.20;;;;;23.50;100760.00;;;;2063300;28;20230;-69
2021/08/23 01:17:54;;;;;;;3.73;3.40;;;;;23.50;100767.00;;;;2071770;28;20214;-69
2021/08/23 01:18:55;;;;;;;5.23;2.83;;;;;23.50;100768.00;;;;2071196;28;20565;-70
2021/08/23 01:19:58;;;;;;;4.03;3.67;;;;;23.50;100758.00;;;;2072073;28;20218;-70
2021/08/23 01:21:00;;;;;;;3.75;2.85;;;;;23.50;100765.00;;;;2071311;28;21176;-70
2021/08/23 01:22:02;;;;;;;4.55;3.55;;;;;23.50;100768.00;;;;2060033;28;20287;-70
2021/08/23 01:23:03;;;;;;;5.63;3.30;;;;;23.50;100768.00;;;;2066956;28;20218;-69
2021/08/23 01:24:03;;;;;;;2.87;2.67;;;;;23.50;100773.00;;;;2067895;28;20213;-70
2021/08/23 01:25:04;;;;;;;3.87;3.50;;;;;23.50;100775.00;;;;2061947;28;20541;-69
2021/08/23 01:26:04;;;;;;;4.00;3.10;;;;;23.50;100771.00;;;;2055080;28;20218;-69
2021/08/23 01:27:07;;;;;;;2.97;2.60;;;;;23.50;100780.00;;;;2062948;28;20211;-70
2021/08/23 01:28:19;;;;;;;3.70;3.40;;;;;23.50;100779.00;;;;2071298;28;20322;-70
2021/08/23 01:29:27;;;;;;;3.33;2.88;;;;;23.50;100776.00;;;;2070687;28;20724;-70
2021/08/23 01:30:30;;;;;;;3.28;3.00;;;;;23.50;100775.00;;;;2068987;28;20297;-70
2021/08/23 01:32:00;;;;;;;3.22;2.75;;;;;23.50;100777.00;;;;2064179;28;20588;-70
2021/08/23 01:33:00;;;;;;;3.05;2.85;;;;;23.50;100776.00;;;;2063549;28;20220;-70
2021/08/23 01:34:01;;;;;;;3.40;3.10;;;;;23.50;100778.00;;;;2071215;28;20237;-70
2021/08/23 01:35:02;;;;;;;3.23;2.90;;;;;23.50;100780.00;;;;2062453;28;20266;-70
2021/08/23 01:36:03;;;;;;;3.40;3.10;;;;;23.50;100782.00;;;;2070325;28;20222;-70
2021/08/23 01:37:03;;;;;;;3.87;3.30;;;;;23.50;100777.00;;;;2063003;28;20230;-70
2021/08/23 01:38:03;;;;;;;3.13;2.93;;;;;23.50;100782.00;;;;2054949;28;20224;-70
2021/08/23 01:39:04;;;;;;;3.10;2.90;;;;;23.50;100780.00;;;;2054209;28;20256;-70
2021/08/23 01:40:05;;;;;;;3.60;3.10;;;;;23.50;100771.00;;;;2062773;28;20214;-69
2021/08/23 01:41:07;;;;;;;2.97;2.78;;;;;23.50;100776.00;;;;2070999;28;20288;-69
2021/08/23 01:42:07;;;;;;;2.80;2.60;;;;;23.50;100775.00;;;;2067315;28;20210;-69
2021/08/23 01:43:08;;;;;;;2.90;2.70;;;;;23.50;100773.00;;;;2071705;28;20220;-70
2021/08/23 01:44:08;;;;;;;3.33;2.80;;;;;23.50;100776.00;;;;2070518;28;20709;-70
2021/08/23 01:45:09;;;;;;;3.53;3.23;;;;;23.50;100771.00;;;;2070815;28;20711;-70
2021/08/23 01:46:09;;;;;;;3.60;3.30;;;;;23.50;100793.00;;;;2071054;28;20209;-70
2021/08/23 01:47:10;;;;;;;2.60;2.40;;;;;23.50;100791.00;;;;2071067;28;20221;-70
2021/08/23 01:48:10;;;;;;;3.73;3.10;;;;;23.50;100781.00;;;;2067818;28;20213;-70
2021/08/23 01:49:11;;;;;;;3.17;2.87;;;;;23.50;100789.00;;;;2070722;28;20248;-69
2021/08/23 01:50:11;;;;;;;3.30;3.00;;;;;23.50;100792.00;;;;2071137;28;20202;-69
2021/08/23 01:51:11;;;;;;;3.20;3.00;;;;;23.50;100788.00;;;;2070953;28;20584;-69
2021/08/23 01:52:12;;;;;;;3.70;3.40;;;;;23.50;100790.00;;;;2071239;28;20581;-70
2021/08/23 01:53:12;;;;;;;3.53;3.23;;;;;23.50;100792.00;;;;2070530;28;20285;-69
2021/08/23 01:54:12;;;;;;;3.20;3.00;;;;;23.50;100796.00;;;;2070492;28;20272;-70
2021/08/23 01:55:12;;;;;;;3.00;2.80;;;;;23.50;100796.00;;;;2070524;28;20230;-70
2021/08/23 01:56:13;;;;;;;2.97;2.77;;;;;23.50;100793.00;;;;2070945;28;20225;-69
2021/08/23 01:57:16;;;;;;;3.13;2.83;;;;;23.50;100791.00;;;;2071198;28;20257;-69
2021/08/23 01:58:17;;;;;;;5.72;3.15;;;;;23.50;100795.00;;;;2070538;28;20214;-70
2021/08/23 01:59:18;;;;;;;3.40;3.10;;;;;23.50;100799.00;;;;2069890;28;20370;-70
2021/08/23 02:00:18;;;;;;;3.03;2.73;;;;;23.50;100801.00;;;;2071073;28;20912;-69
2021/08/23 02:01:18;;;;;;;2.97;2.77;;;;;23.50;100796.00;;;;2071615;28;20700;-69
2021/08/23 02:02:19;;;;;;;3.00;2.80;;;;;23.50;100793.00;;;;2071391;28;20719;-69
2021/08/23 02:03:19;;;;;;;3.13;2.83;;;;;23.50;100797.00;;;;2071803;28;20208;-69
2021/08/23 02:04:19;;;;;;;3.20;2.67;;;;;23.50;100798.00;;;;2071732;28;20210;-70
2021/08/23 02:05:20;;;;;;;3.97;2.80;;;;;23.50;100799.00;;;;2071587;28;20309;-70
2021/08/23 02:06:20;;;;;;;3.50;3.20;;;;;23.50;100794.00;;;;2071671;28;20233;-69
2021/08/23 02:07:21;;;;;;;3.07;2.77;;;;;23.50;100793.00;;;;2067852;28;20210;-70
2021/08/23 02:08:21;;;;;;;2.77;2.57;;;;;23.50;100797.00;;;;2071487;28;20568;-70
2021/08/23 02:09:21;;;;;;;2.63;2.40;;;;;23.50;100796.00;;;;2070254;28;20238;-69
2021/08/23 02:10:22;;;;;;;3.00;2.50;;;;;23.50;100800.00;;;;2069063;28;20212;-69
2021/08/23 02:11:25;;;;;;;2.93;2.73;;;;;23.50;100801.00;;;;2071558;28;20222;-69
2021/08/23 02:12:25;;;;;;;3.67;3.00;;;;;23.50;100803.00;;;;2070544;28;20207;-69
2021/08/23 02:13:25;;;;;;;2.63;2.43;;;;;23.50;100803.00;;;;2071093;28;20210;-70
2021/08/23 02:14:26;;;;;;;3.30;2.97;;;;;23.50;100811.00;;;;2071709;28;20265;-69
2021/08/23 02:15:26;;;;;;;2.93;2.73;;;;;23.50;100808.00;;;;2067599;28;20237;-70
2021/08/23 02:16:26;;;;;;;2.73;2.53;;;;;23.50;100812.00;;;;2071740;28;20214;-69
2021/08/23 02:17:27;;;;;;;2.90;2.70;;;;;23.50;100807.00;;;;2071624;28;20214;-70
2021/08/23 02:18:27;;;;;;;2.77;2.57;;;;;23.50;100818.00;;;;2071458;28;20292;-69
2021/08/23 02:19:27;;;;;;;3.10;2.90;;;;;23.50;100811.00;;;;2070938;28;20211;-69
2021/08/23 02:20:28;;;;;;;2.80;2.60;;;;;23.50;100812.00;;;;2071383;28;20288;-69
2021/08/23 02:21:28;;;;;;;2.80;2.60;;;;;23.50;100813.00;;;;2071628;28;20222;-70
2021/08/23 02:22:28;;;;;;;3.00;2.70;;;;;23.50;100821.00;;;;2071427;28;20238;-69
2021/08/23 02:23:28;;;;;;;2.90;2.57;;;;;23.50;100817.00;;;;2071523;28;20213;-69
2021/08/23 02:24:31;;;;;;;3.03;2.83;;;;;23.50;100817.00;;;;2071450;28;20217;-70
2021/08/23 02:25:32;;;;;;;3.20;2.95;;;;;23.50;100817.00;;;;2071482;28;20956;-70
2021/08/23 02:26:32;;;;;;;2.90;2.60;;;;;23.50;100828.00;;;;2071341;28;20210;-70
2021/08/23 02:27:32;;;;;;;2.70;2.50;;;;;23.50;100823.00;;;;2071406;28;20249;-70
2021/08/23 02:28:33;;;;;;;4.30;3.00;;;;;23.50;100828.00;;;;2071573;28;20240;-70
2021/08/23 02:29:33;;;;;;;3.13;2.83;;;;;23.50;100831.00;;;;2070852;28;20206;-70
2021/08/23 02:30:34;;;;;;;3.00;2.80;;;;;23.50;100833.00;;;;2070565;28;20241;-69
2021/08/23 02:31:34;;;;;;;2.80;2.60;;;;;23.50;100830.00;;;;2070120;28;20210;-70
2021/08/23 02:32:36;;;;;;;2.50;2.30;;;;;23.50;100828.00;;;;2067261;28;20775;-70
2021/08/23 02:33:36;;;;;;;3.08;2.78;;;;;23.50;100827.00;;;;2070779;28;20461;-70
2021/08/23 02:34:36;;;;;;;3.60;3.20;;;;;23.50;100829.00;;;;2070751;28;20214;-70
2021/08/23 02:35:37;;;;;;;2.63;2.43;;;;;23.50;100830.00;;;;2071100;28;20218;-70
2021/08/23 02:36:37;;;;;;;3.07;2.70;;;;;23.50;100838.00;;;;2071049;28;20229;-69
2021/08/23 02:37:37;;;;;;;4.00;2.83;;;;;23.50;100847.00;;;;2071041;28;20214;-70
2021/08/23 02:38:38;;;;;;;2.70;2.50;;;;;23.50;100836.00;;;;2069945;28;20304;-70
2021/08/23 02:39:38;;;;;;;2.80;2.50;;;;;23.50;100849.00;;;;2070179;28;20217;-70
2021/08/23 02:40:38;;;;;;;5.70;2.80;;;;;23.50;100846.00;;;;2070887;28;20684;-70
2021/08/23 02:41:39;;;;;;;2.93;2.63;;;;;23.50;100844.00;;;;2069590;28;20214;-69
2021/08/23 02:42:39;;;;;;;2.97;2.77;;;;;23.50;100849.00;;;;2071426;28;20312;-70
2021/08/23 02:43:40;;;;;;;2.70;2.50;;;;;23.50;100850.00;;;;2071536;28;20301;-70
2021/08/23 02:44:40;;;;;;;3.20;2.97;;;;;23.50;100849.00;;;;2071453;28;20221;-70
2021/08/23 02:45:40;;;;;;;2.70;2.50;;;;;23.50;100848.00;;;;2070717;28;20222;-70
2021/08/23 02:46:41;;;;;;;2.97;2.77;;;;;23.50;100854.00;;;;2071296;28;20237;-70
2021/08/23 02:47:41;;;;;;;3.47;3.00;;;;;23.50;100849.00;;;;2070545;28;20700;-69
2021/08/23 02:48:44;;;;;;;2.97;2.77;;;;;23.50;100850.00;;;;2069893;28;20693;-70
2021/08/23 02:49:45;;;;;;;2.88;2.67;;;;;23.50;100853.00;;;;2066856;28;20607;-70
2021/08/23 02:50:45;;;;;;;2.80;2.60;;;;;23.50;100846.00;;;;2070224;28;21753;-70
2021/08/23 02:51:46;;;;;;;3.27;2.23;;;;;23.50;100854.00;;;;2070461;28;20222;-69
2021/08/23 02:52:46;;;;;;;2.97;2.67;;;;;23.50;100854.00;;;;2071406;28;20288;-70
2021/08/23 02:53:46;;;;;;;2.40;2.20;;;;;23.50;100851.00;;;;2070413;28;20256;-69
2021/08/23 02:54:47;;;;;;;3.27;2.80;;;;;23.50;100854.00;;;;2071306;28;20245;-69
2021/08/23 02:55:47;;;;;;;3.03;2.73;;;;;23.50;100862.00;;;;2070806;28;20218;-70
2021/08/23 02:56:48;;;;;;;3.30;3.00;;;;;23.50;100859.00;;;;2071054;28;20229;-69
2021/08/23 02:57:48;;;;;;;3.33;2.70;;;;;23.50;100852.00;;;;2066733;28;20218;-70
2021/08/23 02:58:48;;;;;;;3.70;2.57;;;;;23.50;100859.00;;;;2070022;28;20476;-70
2021/08/23 02:59:49;;;;;;;3.23;2.93;;;;;23.50;100856.00;;;;2066086;28;20244;-69
2021/08/23 03:00:49;;;;;;;2.77;2.57;;;;;23.50;100855.00;;;;2071189;28;20688;-69
2021/08/23 03:01:49;;;;;;;2.57;2.37;;;;;23.50;100850.00;;;;2071100;28;20710;-70
2021/08/23 03:02:50;;;;;;;2.80;2.60;;;;;23.50;100846.00;;;;2071230;28;20217;-69
2021/08/23 03:03:50;;;;;;;2.40;2.20;;;;;23.50;100860.00;;;;2070871;28;20221;-69
2021/08/23 03:04:50;;;;;;;2.83;2.60;;;;;23.50;100848.00;;;;2070758;28;20210;-69
2021/08/23 03:05:51;;;;;;;3.03;2.80;;;;;23.50;100852.00;;;;2070225;28;20716;-70
2021/08/23 03:06:51;;;;;;;3.03;2.73;;;;;23.50;100846.00;;;;2070641;28;20879;-69
2021/08/23 03:07:51;;;;;;;2.53;2.33;;;;;23.50;100848.00;;;;2071230;28;20226;-69
2021/08/23 03:08:52;;;;;;;2.60;2.40;;;;;23.50;100847.00;;;;2070647;28;20214;-70
2021/08/23 03:09:52;;;;;;;2.87;2.60;;;;;23.50;100856.00;;;;2070104;28;20249;-70
2021/08/23 03:10:54;;;;;;;2.83;2.63;;;;;23.50;100853.00;;;;2071168;28;20240;-70
2021/08/23 03:11:54;;;;;;;2.50;2.30;;;;;23.50;100853.00;;;;2071292;28;20241;-70
2021/08/23 03:12:55;;;;;;;2.67;2.40;;;;;23.50;100844.00;;;;2071323;28;20216;-70
2021/08/23 03:13:55;;;;;;;2.80;2.60;;;;;23.50;100851.00;;;;2071290;28;20248;-70
2021/08/23 03:14:55;;;;;;;4.50;2.50;;;;;23.50;100850.00;;;;2071221;28;20210;-69
2021/08/23 03:15:56;;;;;;;3.10;2.80;;;;;23.50;100862.00;;;;2071288;28;20272;-70
2021/08/23 03:16:56;;;;;;;2.87;2.17;;;;;23.50;100860.00;;;;2070993;28;20245;-69
2021/08/23 03:17:56;;;;;;;3.67;2.70;;;;;23.50;100861.00;;;;2071121;28;20214;-70
2021/08/23 03:18:57;;;;;;;2.67;2.47;;;;;23.50;100864.00;;;;2070604;28;20214;-69
2021/08/23 03:19:57;;;;;;;2.63;2.43;;;;;23.50;100865.00;;;;2071038;28;20217;-69
2021/08/23 03:20:57;;;;;;;2.73;2.20;;;;;23.50;100866.00;;;;2070980;28;20321;-70
2021/08/23 03:21:58;;;;;;;2.60;2.40;;;;;23.50;100871.00;;;;2071053;28;20222;-70
2021/08/23 03:22:58;;;;;;;2.47;2.27;;;;;23.50;100866.00;;;;2071031;28;20210;-69
2021/08/23 03:23:59;;;;;;;2.80;2.60;;;;;23.50;100867.00;;;;2067392;28;20264;-70
2021/08/23 03:24:59;;;;;;;2.80;2.37;;;;;23.50;100872.00;;;;2071057;28;20206;-69
2021/08/23 03:26:00;;;;;;;2.70;2.50;;;;;23.50;100872.00;;;;2071153;28;20216;-70
2021/08/23 03:27:00;;;;;;;2.70;2.50;;;;;23.50;100868.00;;;;2071286;28;20206;-69
2021/08/23 03:28:01;;;;;;;4.43;2.90;;;;;23.50;100874.00;;;;2071321;28;20465;-70
2021/08/23 03:29:01;;;;;;;2.57;2.37;;;;;23.50;100874.00;;;;2070674;28;20202;-69
2021/08/23 03:30:02;;;;;;;2.67;2.43;;;;;23.50;100869.00;;;;2071112;28;20673;-69
2021/08/23 03:31:03;;;;;;;5.28;3.05;;;;;23.50;100878.00;;;;2071055;28;20248;-70
2021/08/23 03:32:03;;;;;;;2.87;2.67;;;;;23.50;100872.00;;;;2071194;28;20225;-70
2021/08/23 03:33:04;;;;;;;2.30;2.10;;;;;23.50;100884.00;;;;2071200;28;20467;-69
2021/08/23 03:34:08;;;;;;;2.57;2.37;;;;;23.50;100875.00;;;;2071114;28;20217;-70
2021/08/23 03:35:09;;;;;;;2.45;2.25;;;;;23.50;100877.00;;;;2071175;28;20271;-70
2021/08/23 03:36:09;;;;;;;3.33;3.03;;;;;23.50;100875.00;;;;2071177;28;20269;-70
2021/08/23 03:37:09;;;;;;;2.73;2.53;;;;;23.50;100877.00;;;;2070318;28;20217;-70
2021/08/23 03:38:10;;;;;;;3.10;2.80;;;;;23.30;100882.00;;;;2071170;28;20210;-70
2021/08/23 03:39:11;;;;;;;2.60;2.40;;;;;23.50;100868.00;;;;2070155;28;20265;-70
2021/08/23 03:40:12;;;;;;;2.57;2.37;;;;;23.50;100869.00;;;;2071044;28;20697;-70
2021/08/23 03:41:12;;;;;;;2.80;2.60;;;;;23.50;100873.00;;;;2069934;28;21511;-69
2021/08/23 03:42:12;;;;;;;2.40;2.20;;;;;23.50;100869.00;;;;2070975;28;20218;-70
2021/08/23 03:43:13;;;;;;;3.00;2.70;;;;;23.50;100873.00;;;;2071229;28;20303;-70
2021/08/23 03:44:13;;;;;;;2.83;2.63;;;;;23.50;100872.00;;;;2071211;28;20217;-70
2021/08/23 03:45:14;;;;;;;2.90;2.70;;;;;23.50;100873.00;;;;2071106;28;20700;-70
2021/08/23 03:46:14;;;;;;;2.40;2.20;;;;;23.50;100870.00;;;;2070544;28;20234;-70
2021/08/23 03:47:14;;;;;;;2.20;2.00;;;;;23.50;100866.00;;;;2070925;28;20222;-70
2021/08/23 03:48:15;;;;;;;3.43;2.60;;;;;23.50;100865.00;;;;2071024;28;20221;-70
2021/08/23 03:49:15;;;;;;;2.57;2.37;;;;;23.50;100867.00;;;;2070509;28;20214;-70
2021/08/23 03:50:15;;;;;;;5.33;2.80;;;;;23.50;100874.00;;;;2071147;28;20253;-70
2021/08/23 03:51:16;;;;;;;2.50;2.30;;;;;23.50;100875.00;;;;2070995;28;21008;-70
2021/08/23 03:52:17;;;;;;;3.10;2.20;;;;;23.50;100866.00;;;;2070871;28;20249;-70
2021/08/23 03:53:17;;;;;;;3.05;2.85;;;;;23.50;100867.00;;;;2071100;28;20449;-70
2021/08/23 03:54:18;;;;;;;2.27;2.07;;;;;23.50;100872.00;;;;2070497;28;20218;-70
2021/08/23 03:55:18;;;;;;;2.70;2.50;;;;;23.50;100880.00;;;;2070481;28;20229;-70
2021/08/23 03:56:18;;;;;;;2.70;2.50;;;;;23.50;100869.00;;;;2071077;28;20269;-70
2021/08/23 03:57:19;;;;;;;2.67;2.40;;;;;23.50;100874.00;;;;2070473;28;20260;-70
2021/08/23 03:58:19;;;;;;;4.40;2.60;;;;;23.50;100882.00;;;;2070346;28;20211;-70
2021/08/23 03:59:19;;;;;;;2.40;2.10;;;;;23.50;100873.00;;;;2070874;28;20269;-70
2021/08/23 04:00:20;;;;;;;2.90;2.70;;;;;23.50;100874.00;;;;2071909;28;20222;-70
2021/08/23 04:01:20;;;;;;;3.17;2.43;;;;;23.40;100876.00;;;;2071865;28;20297;-70
2021/08/23 04:02:20;;;;;;;3.10;2.90;;;;;23.50;100885.00;;;;2071269;28;20225;-70
2021/08/23 04:03:21;;;;;;;2.33;2.20;;;;;23.40;100882.00;;;;2072543;28;20222;-69
2021/08/23 04:04:22;;;;;;;2.50;2.30;;;;;23.50;100879.00;;;;2072587;28;20248;-70
2021/08/23 04:05:22;;;;;;;2.63;2.42;;;;;23.40;100882.00;;;;2072696;28;20225;-70
2021/08/23 04:06:23;;;;;;;2.40;2.20;;;;;23.40;100886.00;;;;2072491;28;20317;-69
2021/08/23 04:07:23;;;;;;;2.87;2.60;;;;;23.50;100883.00;;;;2072073;28;20731;-70
2021/08/23 04:08:23;;;;;;;2.80;2.60;;;;;23.40;100886.00;;;;2071899;28;20309;-70
2021/08/23 04:09:24;;;;;;;3.40;2.50;;;;;23.50;100888.00;;;;2071289;28;20680;-70
2021/08/23 04:10:24;;;;;;;2.70;2.50;;;;;23.40;100886.00;;;;2069005;28;20219;-70
2021/08/23 04:11:24;;;;;;;2.80;2.10;;;;;23.50;100885.00;;;;2068374;28;20349;-70
2021/08/23 04:12:25;;;;;;;2.90;2.70;;;;;23.50;100887.00;;;;2072518;28;20230;-70
2021/08/23 04:13:25;;;;;;;2.87;2.47;;;;;23.40;100888.00;;;;2072528;28;20245;-69
2021/08/23 04:14:25;;;;;;;2.90;2.43;;;;;23.50;100889.00;;;;2072479;28;20281;-70
2021/08/23 04:15:26;;;;;;;2.73;2.50;;;;;23.40;100891.00;;;;2072604;28;20225;-69
2021/08/23 04:16:26;;;;;;;2.50;2.30;;;;;23.40;100896.00;;;;2072274;28;20245;-70
2021/08/23 04:17:26;;;;;;;2.70;2.50;;;;;23.40;100893.00;;;;2072402;28;20241;-69
2021/08/23 04:18:30;;;;;;;3.40;2.80;;;;;23.50;100898.00;;;;2072577;28;20233;-70
2021/08/23 04:19:30;;;;;;;3.40;3.10;;;;;23.50;100901.00;;;;2071103;28;20222;-69
2021/08/23 04:20:31;;;;;;;2.83;2.63;;;;;23.40;100895.00;;;;2072214;28;20700;-69
2021/08/23 04:21:31;;;;;;;2.80;2.60;;;;;23.40;100895.00;;;;2072373;28;20238;-69
2021/08/23 04:22:31;;;;;;;2.50;2.30;;;;;23.50;100899.00;;;;2072515;28;20742;-70
2021/08/23 04:23:32;;;;;;;2.87;2.53;;;;;23.50;100899.00;;;;2072462;28;20214;-69
2021/08/23 04:24:32;;;;;;;2.57;2.37;;;;;23.50;100899.00;;;;2071818;28;20237;-69
2021/08/23 04:25:32;;;;;;;3.30;3.00;;;;;23.50;100904.00;;;;2071749;28;20210;-69
2021/08/23 04:26:33;;;;;;;3.30;3.03;;;;;23.40;100905.00;;;;2072465;28;20215;-69
2021/08/23 04:27:33;;;;;;;2.90;2.70;;;;;23.50;100910.00;;;;2072469;28;20222;-69
2021/08/23 04:28:33;;;;;;;2.90;2.70;;;;;23.50;100902.00;;;;2072318;28;20941;-70
2021/08/23 04:29:34;;;;;;;3.03;2.80;;;;;23.50;100909.00;;;;2071708;28;20584;-69
2021/08/23 04:30:34;;;;;;;3.80;3.50;;;;;23.50;100914.00;;;;2072046;28;20652;-70
2021/08/23 04:31:34;;;;;;;2.87;2.67;;;;;23.50;100913.00;;;;2072281;28;20238;-70
2021/08/23 04:32:35;;;;;;;3.50;3.20;;;;;23.40;100912.00;;;;2072312;28;20248;-69
2021/08/23 04:33:35;;;;;;;3.27;2.97;;;;;23.40;100910.00;;;;2072423;28;20213;-69
2021/08/23 04:34:35;;;;;;;3.43;3.13;;;;;23.40;100915.00;;;;2072531;28;20214;-70
2021/08/23 04:35:36;;;;;;;3.03;2.73;;;;;23.50;100910.00;;;;2072319;28;20390;-70
2021/08/23 04:36:37;;;;;;;4.40;4.00;;;;;23.40;100917.00;;;;2072408;28;20324;-69
2021/08/23 04:37:37;;;;;;;3.38;3.13;;;;;23.40;100915.00;;;;2071847;28;20213;-69
2021/08/23 04:38:37;;;;;;;3.57;3.27;;;;;23.40;100916.00;;;;2072118;28;20213;-69
2021/08/23 04:39:38;;;;;;;4.17;2.90;;;;;23.40;100920.00;;;;2071489;28;20206;-70
2021/08/23 04:40:38;;;;;;;3.50;3.20;;;;;23.40;100920.00;;;;2072313;28;20238;-69
2021/08/23 04:41:39;;;;;;;3.70;3.40;;;;;23.40;100922.00;;;;2072470;28;20561;-70
2021/08/23 04:42:40;;;;;;;3.10;2.90;;;;;23.40;100924.00;;;;2072279;28;20216;-70
2021/08/23 04:43:40;;;;;;;4.47;4.07;;;;;23.40;100926.00;;;;2072297;28;20222;-70
2021/08/23 04:44:43;;;;;;;3.33;3.03;;;;;23.40;100929.00;;;;2071743;28;20222;-70
2021/08/23 04:45:44;;;;;;;4.40;3.55;;;;;23.40;100929.00;;;;2062143;28;20306;-70
2021/08/23 04:46:44;;;;;;;3.90;3.60;;;;;23.50;100934.00;;;;2067768;28;20211;-70
2021/08/23 04:47:44;;;;;;;4.03;3.63;;;;;23.40;100935.00;;;;2071304;28;20684;-69
2021/08/23 04:48:45;;;;;;;4.00;3.37;;;;;23.40;100936.00;;;;2071898;28;20218;-70
2021/08/23 04:49:45;;;;;;;4.23;3.77;;;;;23.40;100937.00;;;;2071721;28;20206;-70
2021/08/23 04:50:46;;;;;;;4.37;3.97;;;;;23.40;100941.00;;;;2072089;28;20217;-70
2021/08/23 04:51:46;;;;;;;4.03;3.73;;;;;23.40;100935.00;;;;2072344;28;20217;-70
2021/08/23 04:52:47;;;;;;;4.37;3.97;;;;;23.40;100932.00;;;;2072320;28;20909;-70
2021/08/23 04:53:47;;;;;;;4.00;3.70;;;;;23.40;100940.00;;;;2070800;28;20713;-70
2021/08/23 04:54:48;;;;;;;3.87;3.53;;;;;23.40;100940.00;;;;2071537;28;20469;-70
2021/08/23 04:55:48;;;;;;;3.80;3.50;;;;;23.40;100945.00;;;;2072248;28;20218;-70
2021/08/23 04:56:48;;;;;;;4.40;3.90;;;;;23.40;100942.00;;;;2072243;28;20249;-69
2021/08/23 04:57:49;;;;;;;3.77;3.47;;;;;23.40;100942.00;;;;2071655;28;20265;-71
2021/08/23 04:58:51;;;;;;;4.10;3.70;;;;;23.40;100945.00;;;;2070398;28;20222;-70
2021/08/23 04:59:52;;;;;;;4.50;4.10;;;;;23.40;100946.00;;;;2067355;28;20206;-70
2021/08/23 05:00:52;;;;;;;3.93;3.60;;;;;23.40;100948.00;;;;2071470;28;20768;-69
2021/08/23 05:01:52;;;;;;;3.83;3.53;;;;;23.40;100945.00;;;;2072208;28;20723;-70